Time,TemperatureF,DewpointF,PressureIn,WindDirection,WindDirectionDegrees,WindSpeedMPH,WindSpeedGustMPH,Humidity,HourlyPrecipIn,Conditions,Clouds,dailyrainin,SolarRadiationWatts/m^2,SoftwareType,DateUTC
2013-01-29 00:00:00,46.1,43.0,30.22,SW,225,1.0,-999.0,89,0.00,,,0.03,0,Wunderground v.1.15,2013-01-29 05:00:00,
2013-01-29 00:02:00,46.1,43.0,30.22,SW,232,1.0,-999.0,89,0.00,,,0.00,0,Wunderground v.1.15,2013-01-29 05:02:00,
2013-01-29 00:03:00,46.1,43.0,30.23,SW,229,2.0,-999.0,89,0.00,,,0.00,0,Wunderground v.1.15,2013-01-29 05:03:00,
2013-01-29 00:04:00,46.1,43.0,30.23,SW,234,2.0,-999.0,89,0.00,,,0.00,0,Wunderground v.1.15,2013-01-29 05:04:00,
2013-01-29 00:09:00,46.1,43.0,30.23,WSW,246,2.0,-999.0,89,0.00,,,0.00,0,Wunderground v.1.15,2013-01-29 05:09:00,
2013-01-29 00:15:00,46.1,43.0,30.22,WSW,254,2.0,-999.0,89,0.00,,,0.00,0,Wunderground v.1.15,2013-01-29 05:15:00,
2013-01-29 00:20:00,46.0,42.9,30.22,SW,234,2.0,-999.0,89,0.00,,,0.00,0,Wunderground v.1.15,2013-01-29 05:20:00,
2013-01-29 00:25:00,46.0,42.9,30.23,West,279,2.0,-999.0,89,0.00,,,0.00,0,Wunderground v.1.15,2013-01-29 05:25:00,
2013-01-29 00:31:00,45.8,42.7,30.22,SW,232,1.0,-999.0,89,0.00,,,0.00,0,Wunderground v.1.15,2013-01-29 05:31:00,
2013-01-29 00:36:00,45.8,42.7,30.22,WSW,254,1.0,-999.0,89,0.00,,,0.00,0,Wunderground v.1.15,2013-01-29 05:36:00,
2013-01-29 00:41:00,45.7,42.6,30.22,WSW,238,2.0,-999.0,89,0.00,,,0.00,0,Wunderground v.1.15,2013-01-29 05:41:00,
2013-01-29 00:47:00,45.6,42.5,30.22,SW,225,1.0,-999.0,89,0.00,,,0.00,0,Wunderground v.1.15,2013-01-29 05:47:00,
2013-01-29 00:53:00,45.5,42.4,30.22,SW,234,2.0,-999.0,89,0.00,,,0.00,0,Wunderground v.1.15,2013-01-29 05:53:00,
2013-01-29 00:58:00,45.5,42.4,30.22,SSW,211,2.0,-999.0,89,0.00,,,0.00,0,Wunderground v.1.15,2013-01-29 05:58:00,
2013-01-29 01:04:00,45.4,42.6,30.21,SW,226,2.0,-999.0,90,0.00,,,0.00,0,Wunderground v.1.15,2013-01-29 06:04:00,
2013-01-29 01:09:00,45.4,42.6,30.22,WSW,256,1.0,-999.0,90,0.00,,,0.00,0,Wunderground v.1.15,2013-01-29 06:09:00,
2013-01-29 01:14:00,45.3,42.5,30.22,WSW,256,1.0,-999.0,90,0.00,,,0.00,0,Wunderground v.1.15,2013-01-29 06:14:00,
2013-01-29 01:19:00,45.2,42.4,30.22,SW,231,1.0,-999.0,90,0.00,,,0.00,0,Wunderground v.1.15,2013-01-29 06:19:00,
2013-01-29 01:25:00,45.1,42.3,30.21,SW,215,1.0,-999.0,90,0.00,,,0.00,0,Wunderground v.1.15,2013-01-29 06:25:00,
2013-01-29 01:30:00,45.1,42.3,30.21,SW,221,1.0,-999.0,90,0.00,,,0.00,0,Wunderground v.1.15,2013-01-29 06:30:00,
2013-01-29 01:35:00,45.1,42.3,30.21,SW,227,2.0,-999.0,90,0.00,,,0.00,0,Wunderground v.1.15,2013-01-29 06:35:00,
2013-01-29 01:40:00,45.0,42.2,30.21,South,188,2.0,-999.0,90,0.00,,,0.00,0,Wunderground v.1.15,2013-01-29 06:40:00,
2013-01-29 01:46:00,45.1,42.6,30.21,West,267,2.0,-999.0,91,0.00,,,0.00,0,Wunderground v.1.15,2013-01-29 06:46:00,
2013-01-29 01:51:00,45.2,42.7,30.21,WSW,239,2.0,-999.0,91,0.00,,,0.00,0,Wunderground v.1.15,2013-01-29 06:51:00,
2013-01-29 01:56:00,45.3,42.8,30.21,WSW,245,2.0,-999.0,91,0.00,,,0.00,0,Wunderground v.1.15,2013-01-29 06:56:00,
2013-01-29 02:02:00,45.5,43.0,30.21,WSW,250,3.0,-999.0,91,0.00,,,0.00,0,Wunderground v.1.15,2013-01-29 07:02:00,
2013-01-29 02:07:00,45.7,43.2,30.22,WSW,257,3.0,-999.0,91,0.00,,,0.00,0,Wunderground v.1.15,2013-01-29 07:07:00,
2013-01-29 02:12:00,45.7,43.2,30.21,WSW,238,2.0,-999.0,91,0.00,,,0.00,0,Wunderground v.1.15,2013-01-29 07:12:00,
2013-01-29 02:18:00,45.9,43.4,30.21,SW,226,3.0,-999.0,91,0.00,,,0.00,0,Wunderground v.1.15,2013-01-29 07:18:00,
2013-01-29 02:23:00,45.9,43.4,30.21,SW,236,3.0,-999.0,91,0.00,,,0.00,0,Wunderground v.1.15,2013-01-29 07:23:00,
2013-01-29 02:28:00,46.0,43.5,30.20,WSW,238,3.0,-999.0,91,0.00,,,0.00,0,Wunderground v.1.15,2013-01-29 07:28:00,
2013-01-29 02:33:00,46.0,43.8,30.20,West,263,3.0,-999.0,92,0.00,,,0.00,0,Wunderground v.1.15,2013-01-29 07:33:00,
2013-01-29 02:39:00,46.1,43.9,30.21,WSW,244,3.0,-999.0,92,0.00,,,0.00,0,Wunderground v.1.15,2013-01-29 07:39:00,
2013-01-29 02:44:00,46.1,43.9,30.21,SW,223,3.0,-999.0,92,0.00,,,0.00,0,Wunderground v.1.15,2013-01-29 07:44:00,
2013-01-29 02:49:00,46.1,43.9,30.21,WNW,283,2.0,-999.0,92,0.00,,,0.00,0,Wunderground v.1.15,2013-01-29 07:49:00,
2013-01-29 02:55:00,46.1,43.9,30.21,SW,234,1.0,-999.0,92,0.00,,,0.00,0,Wunderground v.1.15,2013-01-29 07:55:00,
2013-01-29 03:00:00,46.1,43.9,30.21,WSW,239,2.0,-999.0,92,0.00,,,0.00,0,Wunderground v.1.15,2013-01-29 08:00:00,
2013-01-29 03:05:00,46.1,43.9,30.20,West,277,2.0,-999.0,92,0.00,,,0.00,0,Wunderground v.1.15,2013-01-29 08:05:00,
2013-01-29 03:10:00,46.2,44.0,30.20,SW,235,3.0,-999.0,92,0.00,,,0.00,0,Wunderground v.1.15,2013-01-29 08:10:00,
2013-01-29 03:16:00,46.2,44.0,30.20,WSW,247,3.0,-999.0,92,0.00,,,0.00,0,Wunderground v.1.15,2013-01-29 08:16:00,
2013-01-29 03:21:00,46.2,44.0,30.19,SW,225,3.0,-999.0,92,0.00,,,0.00,0,Wunderground v.1.15,2013-01-29 08:21:00,
2013-01-29 03:26:00,46.3,44.1,30.20,SW,220,2.0,-999.0,92,0.00,,,0.00,0,Wunderground v.1.15,2013-01-29 08:26:00,
2013-01-29 03:32:00,46.3,44.1,30.20,WSW,252,3.0,-999.0,92,0.00,,,0.00,0,Wunderground v.1.15,2013-01-29 08:32:00,
2013-01-29 03:37:00,46.3,44.1,30.19,WSW,243,2.0,-999.0,92,0.00,,,0.00,0,Wunderground v.1.15,2013-01-29 08:37:00,
2013-01-29 03:42:00,46.3,44.1,30.19,SW,227,2.0,-999.0,92,0.00,,,0.00,0,Wunderground v.1.15,2013-01-29 08:42:00,
2013-01-29 03:48:00,46.2,44.0,30.19,West,259,1.0,-999.0,92,0.00,,,0.00,0,Wunderground v.1.15,2013-01-29 08:48:00,
2013-01-29 03:53:00,46.2,44.0,30.19,WNW,290,1.0,-999.0,92,0.00,,,0.00,0,Wunderground v.1.15,2013-01-29 08:53:00,
2013-01-29 03:58:00,46.2,44.0,30.19,WSW,257,3.0,-999.0,92,0.00,,,0.00,0,Wunderground v.1.15,2013-01-29 08:58:00,
2013-01-29 04:03:00,46.2,44.0,30.20,West,264,3.0,-999.0,92,0.00,,,0.00,0,Wunderground v.1.15,2013-01-29 09:03:00,
2013-01-29 04:09:00,46.2,44.0,30.19,West,274,3.0,-999.0,92,0.00,,,0.00,0,Wunderground v.1.15,2013-01-29 09:09:00,
2013-01-29 04:14:00,46.1,43.9,30.19,WSW,250,2.0,-999.0,92,0.00,,,0.00,0,Wunderground v.1.15,2013-01-29 09:14:00,
2013-01-29 04:19:00,46.1,43.9,30.19,SW,229,1.0,-999.0,92,0.00,,,0.00,0,Wunderground v.1.15,2013-01-29 09:19:00,
2013-01-29 04:25:00,46.1,43.9,30.19,SW,231,1.0,-999.0,92,0.00,,,0.00,0,Wunderground v.1.15,2013-01-29 09:25:00,
2013-01-29 04:30:00,46.1,43.9,30.19,WSW,249,1.0,-999.0,92,0.00,,,0.00,0,Wunderground v.1.15,2013-01-29 09:30:00,
2013-01-29 04:35:00,46.0,43.8,30.19,WSW,250,1.0,-999.0,92,0.00,,,0.00,0,Wunderground v.1.15,2013-01-29 09:35:00,
2013-01-29 04:41:00,46.1,44.2,30.19,WSW,248,2.0,-999.0,93,0.00,,,0.00,0,Wunderground v.1.15,2013-01-29 09:41:00,
2013-01-29 04:46:00,46.0,44.1,30.19,SSW,209,2.0,-999.0,93,0.00,,,0.00,0,Wunderground v.1.15,2013-01-29 09:46:00,
2013-01-29 04:51:00,46.0,44.1,30.19,WSW,244,2.0,-999.0,93,0.00,,,0.00,0,Wunderground v.1.15,2013-01-29 09:51:00,
2013-01-29 04:56:00,46.0,44.1,30.19,WSW,251,3.0,-999.0,93,0.00,,,0.00,0,Wunderground v.1.15,2013-01-29 09:56:00,
2013-01-29 05:02:00,46.0,43.8,30.18,SW,235,2.0,-999.0,92,0.00,,,0.00,0,Wunderground v.1.15,2013-01-29 10:02:00,
2013-01-29 05:07:00,45.9,44.0,30.19,WSW,253,2.0,-999.0,93,0.00,,,0.00,0,Wunderground v.1.15,2013-01-29 10:07:00,
2013-01-29 05:12:00,45.9,44.0,30.19,SSW,207,2.0,-999.0,93,0.00,,,0.00,0,Wunderground v.1.15,2013-01-29 10:12:00,
2013-01-29 05:18:00,45.8,43.9,30.18,WSW,257,2.0,-999.0,93,0.00,,,0.00,0,Wunderground v.1.15,2013-01-29 10:18:00,
2013-01-29 05:23:00,45.8,43.9,30.18,SW,229,1.0,-999.0,93,0.00,,,0.00,0,Wunderground v.1.15,2013-01-29 10:23:00,
2013-01-29 05:28:00,45.8,43.9,30.19,WNW,300,2.0,-999.0,93,0.00,,,0.00,0,Wunderground v.1.15,2013-01-29 10:28:00,
2013-01-29 05:34:00,45.7,43.8,30.19,WNW,288,3.0,-999.0,93,0.00,,,0.00,0,Wunderground v.1.15,2013-01-29 10:34:00,
2013-01-29 05:40:00,45.7,43.8,30.19,WSW,240,2.0,-999.0,93,0.00,,,0.00,0,Wunderground v.1.15,2013-01-29 10:40:00,
2013-01-29 05:45:00,45.6,43.7,30.19,SW,222,2.0,-999.0,93,0.00,,,0.00,0,Wunderground v.1.15,2013-01-29 10:45:00,
2013-01-29 05:50:00,45.6,43.7,30.19,West,265,2.0,-999.0,93,0.00,,,0.00,0,Wunderground v.1.15,2013-01-29 10:50:00,
2013-01-29 05:56:00,45.5,43.6,30.19,WNW,293,2.0,-999.0,93,0.00,,,0.00,0,Wunderground v.1.15,2013-01-29 10:56:00,
2013-01-29 06:01:00,45.4,43.5,30.19,WSW,257,2.0,-999.0,93,0.00,,,0.00,0,Wunderground v.1.15,2013-01-29 11:01:00,
2013-01-29 06:06:00,45.4,43.5,30.19,WSW,252,3.0,-999.0,93,0.00,,,0.00,0,Wunderground v.1.15,2013-01-29 11:06:00,
2013-01-29 06:12:00,45.3,43.4,30.19,West,267,2.0,-999.0,93,0.00,,,0.00,0,Wunderground v.1.15,2013-01-29 11:12:00,
2013-01-29 06:17:00,45.2,43.3,30.19,SW,236,2.0,-999.0,93,0.00,,,0.00,0,Wunderground v.1.15,2013-01-29 11:17:00,
2013-01-29 06:22:00,45.2,43.3,30.18,WSW,246,2.0,-999.0,93,0.00,,,0.00,0,Wunderground v.1.15,2013-01-29 11:22:00,
2013-01-29 06:28:00,45.1,43.2,30.19,WSW,249,1.0,-999.0,93,0.00,,,0.00,0,Wunderground v.1.15,2013-01-29 11:28:00,
2013-01-29 06:33:00,45.1,43.2,30.18,WSW,238,1.0,-999.0,93,0.00,,,0.00,0,Wunderground v.1.15,2013-01-29 11:33:00,
2013-01-29 06:39:00,45.0,43.1,30.18,SW,227,2.0,-999.0,93,0.00,,,0.00,0,Wunderground v.1.15,2013-01-29 11:39:00,
2013-01-29 06:44:00,45.0,43.1,30.18,WSW,249,2.0,-999.0,93,0.00,,,0.00,0,Wunderground v.1.15,2013-01-29 11:44:00,
2013-01-29 06:50:00,45.0,43.1,30.18,West,259,2.0,-999.0,93,0.00,,,0.00,0,Wunderground v.1.15,2013-01-29 11:50:00,
2013-01-29 06:55:00,45.0,43.1,30.18,WSW,248,2.0,-999.0,93,0.00,,,0.00,0,Wunderground v.1.15,2013-01-29 11:55:00,
2013-01-29 07:00:00,44.9,43.0,30.19,SSW,208,2.0,-999.0,93,0.00,,,0.00,0,Wunderground v.1.15,2013-01-29 12:00:00,
2013-01-29 07:05:00,44.9,43.0,30.19,West,269,2.0,-999.0,93,0.00,,,0.00,0,Wunderground v.1.15,2013-01-29 12:05:00,
2013-01-29 07:11:00,44.8,42.9,30.19,SW,236,1.0,-999.0,93,0.00,,,0.00,0,Wunderground v.1.15,2013-01-29 12:11:00,
2013-01-29 07:16:00,44.8,42.9,30.19,WSW,252,1.0,-999.0,93,0.00,,,0.00,0,Wunderground v.1.15,2013-01-29 12:16:00,
2013-01-29 07:22:00,44.8,42.9,30.19,SW,225,1.0,-999.0,93,0.00,,,0.00,0,Wunderground v.1.15,2013-01-29 12:22:00,
2013-01-29 07:27:00,44.9,43.0,30.19,West,280,1.0,-999.0,93,0.00,,,0.00,0,Wunderground v.1.15,2013-01-29 12:27:00,
2013-01-29 07:32:00,44.9,43.0,30.19,WSW,244,1.0,-999.0,93,0.00,,,0.00,5,Wunderground v.1.15,2013-01-29 12:32:00,
2013-01-29 07:38:00,44.8,42.9,30.19,WSW,250,1.0,-999.0,93,0.00,,,0.00,9,Wunderground v.1.15,2013-01-29 12:38:00,
2013-01-29 07:44:00,44.9,43.0,30.19,SSW,213,1.0,-999.0,93,0.00,,,0.00,12,Wunderground v.1.15,2013-01-29 12:44:00,
2013-01-29 07:49:00,44.9,43.0,30.19,WSW,240,1.0,-999.0,93,0.00,,,0.00,18,Wunderground v.1.15,2013-01-29 12:49:00,
2013-01-29 07:54:00,45.0,43.1,30.20,WSW,252,1.0,-999.0,93,0.00,,,0.00,23,Wunderground v.1.15,2013-01-29 12:54:00,
2013-01-29 08:00:00,45.0,43.1,30.19,SW,225,1.0,-999.0,93,0.00,,,0.00,30,Wunderground v.1.15,2013-01-29 13:00:00,
2013-01-29 08:05:00,45.0,43.1,30.20,SW,227,1.0,-999.0,93,0.00,,,0.00,39,Wunderground v.1.15,2013-01-29 13:05:00,
2013-01-29 08:10:00,45.0,43.1,30.20,WSW,243,0.0,-999.0,93,0.00,,,0.00,42,Wunderground v.1.15,2013-01-29 13:10:00,
2013-01-29 08:16:00,45.0,43.1,30.20,SW,229,1.0,-999.0,93,0.00,,,0.00,51,Wunderground v.1.15,2013-01-29 13:16:00,
2013-01-29 08:21:00,45.1,43.2,30.20,SW,229,0.0,-999.0,93,0.00,,,0.00,54,Wunderground v.1.15,2013-01-29 13:21:00,
2013-01-29 08:26:00,45.2,43.6,30.20,SW,229,0.0,-999.0,94,0.00,,,0.00,67,Wunderground v.1.15,2013-01-29 13:26:00,
2013-01-29 08:31:00,45.3,43.7,30.20,WSW,252,0.0,-999.0,94,0.00,,,0.00,70,Wunderground v.1.15,2013-01-29 13:31:00,
2013-01-29 08:37:00,45.4,43.8,30.20,WSW,238,0.0,-999.0,94,0.00,,,0.00,81,Wunderground v.1.15,2013-01-29 13:37:00,
2013-01-29 08:42:00,45.5,43.9,30.20,WSW,237,1.0,-999.0,94,0.00,,,0.00,91,Wunderground v.1.15,2013-01-29 13:42:00,
2013-01-29 08:47:00,45.6,44.0,30.20,WSW,250,1.0,-999.0,94,0.00,,,0.00,111,Wunderground v.1.15,2013-01-29 13:47:00,
2013-01-29 08:53:00,45.7,44.1,30.20,WNW,284,0.0,-999.0,94,0.00,,,0.00,139,Wunderground v.1.15,2013-01-29 13:53:00,
2013-01-29 08:58:00,45.9,44.3,30.20,WNW,284,0.0,-999.0,94,0.00,,,0.00,142,Wunderground v.1.15,2013-01-29 13:58:00,
2013-01-29 09:03:00,46.1,44.5,30.20,West,275,0.0,-999.0,94,0.00,,,0.00,162,Wunderground v.1.15,2013-01-29 14:03:00,
2013-01-29 09:09:00,46.5,44.9,30.20,SW,219,1.0,-999.0,94,0.00,,,0.00,197,Wunderground v.1.15,2013-01-29 14:09:00,
2013-01-29 09:14:00,46.9,45.3,30.20,West,268,1.0,-999.0,94,0.00,,,0.00,139,Wunderground v.1.15,2013-01-29 14:14:00,
2013-01-29 09:19:00,47.5,45.9,30.20,WSW,240,1.0,-999.0,94,0.00,,,0.00,216,Wunderground v.1.15,2013-01-29 14:19:00,
2013-01-29 09:24:00,48.0,46.4,30.20,SSW,204,1.0,-999.0,94,0.00,,,0.00,192,Wunderground v.1.15,2013-01-29 14:24:00,
2013-01-29 09:30:00,48.5,46.6,30.20,South,190,1.0,-999.0,93,0.00,,,0.00,313,Wunderground v.1.15,2013-01-29 14:30:00,
2013-01-29 09:35:00,49.1,46.9,30.20,SW,236,1.0,-999.0,92,0.00,,,0.00,380,Wunderground v.1.15,2013-01-29 14:35:00,
2013-01-29 09:40:00,49.6,46.8,30.20,SW,234,1.0,-999.0,90,0.00,,,0.00,401,Wunderground v.1.15,2013-01-29 14:40:00,
2013-01-29 09:46:00,50.3,46.9,30.20,WSW,240,1.0,-999.0,88,0.00,,,0.00,364,Wunderground v.1.15,2013-01-29 14:46:00,
2013-01-29 09:51:00,50.6,46.9,30.20,WSW,245,1.0,-999.0,87,0.00,,,0.00,415,Wunderground v.1.15,2013-01-29 14:51:00,
2013-01-29 09:56:00,51.4,47.4,30.20,SW,222,1.0,-999.0,86,0.00,,,0.00,436,Wunderground v.1.15,2013-01-29 14:56:00,
2013-01-29 10:02:00,51.8,47.1,30.20,WSW,240,1.0,-999.0,84,0.00,,,0.00,448,Wunderground v.1.15,2013-01-29 15:02:00,
2013-01-29 10:07:00,52.1,47.4,30.20,South,189,2.0,-999.0,84,0.00,,,0.00,462,Wunderground v.1.15,2013-01-29 15:07:00,
2013-01-29 10:12:00,52.9,47.9,30.20,SSW,209,2.0,-999.0,83,0.00,,,0.00,485,Wunderground v.1.15,2013-01-29 15:12:00,
2013-01-29 10:18:00,53.6,48.2,30.20,WSW,246,1.0,-999.0,82,0.00,,,0.00,390,Wunderground v.1.15,2013-01-29 15:18:00,
2013-01-29 10:23:00,53.9,48.2,30.20,SW,217,1.0,-999.0,81,0.00,,,0.00,469,Wunderground v.1.15,2013-01-29 15:23:00,
2013-01-29 10:28:00,54.4,48.4,30.20,SW,218,1.0,-999.0,80,0.00,,,0.00,499,Wunderground v.1.15,2013-01-29 15:28:00,
2013-01-29 10:34:00,55.6,49.5,30.20,SW,218,1.0,-999.0,80,0.00,,,0.00,508,Wunderground v.1.15,2013-01-29 15:34:00,
2013-01-29 10:39:00,56.0,48.9,30.20,SW,227,1.0,-999.0,77,0.00,,,0.00,515,Wunderground v.1.15,2013-01-29 15:39:00,
2013-01-29 10:44:00,56.6,49.1,30.20,SW,233,2.0,-999.0,76,0.00,,,0.00,538,Wunderground v.1.15,2013-01-29 15:44:00,
2013-01-29 10:50:00,57.3,49.8,30.20,WNW,287,2.0,-999.0,76,0.00,,,0.00,554,Wunderground v.1.15,2013-01-29 15:50:00,
2013-01-29 10:55:00,57.9,49.7,30.20,West,268,2.0,-999.0,74,0.00,,,0.00,559,Wunderground v.1.15,2013-01-29 15:55:00,
2013-01-29 11:00:00,58.4,49.8,30.20,South,178,2.0,-999.0,73,0.00,,,0.00,559,Wunderground v.1.15,2013-01-29 16:00:00,
2013-01-29 11:06:00,59.0,50.4,30.20,WSW,257,2.0,-999.0,73,0.00,,,0.00,582,Wunderground v.1.15,2013-01-29 16:06:00,
2013-01-29 11:11:00,59.9,51.2,30.20,WSW,256,2.0,-999.0,73,0.00,,,0.00,584,Wunderground v.1.15,2013-01-29 16:11:00,
2013-01-29 11:16:00,59.6,50.6,30.19,West,269,4.0,-999.0,72,0.00,,,0.00,559,Wunderground v.1.15,2013-01-29 16:16:00,
2013-01-29 11:21:00,59.7,50.7,30.19,West,263,5.0,-999.0,72,0.00,,,0.00,526,Wunderground v.1.15,2013-01-29 16:21:00,
2013-01-29 11:27:00,60.2,51.1,30.19,SW,219,3.0,-999.0,72,0.00,,,0.00,561,Wunderground v.1.15,2013-01-29 16:27:00,
2013-01-29 11:32:00,61.4,51.9,30.18,WSW,248,2.0,-999.0,71,0.00,,,0.00,496,Wunderground v.1.15,2013-01-29 16:32:00,
2013-01-29 11:37:00,61.4,51.1,30.18,West,278,2.0,-999.0,69,0.00,,,0.00,497,Wunderground v.1.15,2013-01-29 16:37:00,
2013-01-29 11:43:00,61.6,51.3,30.18,WSW,240,3.0,-999.0,69,0.00,,,0.00,571,Wunderground v.1.15,2013-01-29 16:43:00,
2013-01-29 11:48:00,61.8,51.5,30.17,West,274,4.0,-999.0,69,0.00,,,0.00,578,Wunderground v.1.15,2013-01-29 16:48:00,
2013-01-29 11:53:00,62.4,51.7,30.17,SW,219,4.0,-999.0,68,0.00,,,0.00,612,Wunderground v.1.15,2013-01-29 16:53:00,
2013-01-29 11:59:00,62.9,52.2,30.16,South,190,3.0,-999.0,68,0.00,,,0.00,605,Wunderground v.1.15,2013-01-29 16:59:00,
2013-01-29 12:04:00,63.2,52.1,30.16,WSW,242,2.0,-999.0,67,0.00,,,0.00,578,Wunderground v.1.15,2013-01-29 17:04:00,
2013-01-29 12:09:00,63.5,52.7,30.16,West,278,2.0,-999.0,68,0.00,,,0.00,564,Wunderground v.1.15,2013-01-29 17:09:00,
2013-01-29 12:15:00,64.3,53.1,30.15,South,182,3.0,-999.0,67,0.00,,,0.00,561,Wunderground v.1.15,2013-01-29 17:15:00,
2013-01-29 12:20:00,65.6,53.5,30.15,WSW,255,1.0,-999.0,65,0.00,,,0.00,543,Wunderground v.1.15,2013-01-29 17:20:00,
2013-01-29 12:25:00,65.5,53.0,30.14,SSW,210,1.0,-999.0,64,0.00,,,0.00,598,Wunderground v.1.15,2013-01-29 17:25:00,
2013-01-29 12:30:00,65.5,53.0,30.14,WSW,249,3.0,-999.0,64,0.00,,,0.00,515,Wunderground v.1.15,2013-01-29 17:30:00,
2013-01-29 12:36:00,65.3,53.6,30.14,SW,230,3.0,-999.0,66,0.00,,,0.00,424,Wunderground v.1.15,2013-01-29 17:36:00,
2013-01-29 12:41:00,65.4,54.2,30.14,SW,221,2.0,-999.0,67,0.00,,,0.00,424,Wunderground v.1.15,2013-01-29 17:41:00,
2013-01-29 12:46:00,65.4,53.7,30.14,SSW,196,2.0,-999.0,66,0.00,,,0.00,357,Wunderground v.1.15,2013-01-29 17:46:00,
2013-01-29 12:52:00,65.3,53.6,30.13,WSW,253,3.0,-999.0,66,0.00,,,0.00,394,Wunderground v.1.15,2013-01-29 17:52:00,
2013-01-29 12:57:00,66.0,53.5,30.13,SW,229,3.0,-999.0,64,0.00,,,0.00,517,Wunderground v.1.15,2013-01-29 17:57:00,
2013-01-29 13:02:00,65.8,53.3,30.13,West,274,3.0,-999.0,64,0.00,,,0.00,325,Wunderground v.1.15,2013-01-29 18:02:00,
2013-01-29 13:08:00,66.0,53.9,30.13,SSW,210,4.0,-999.0,65,0.00,,,0.00,517,Wunderground v.1.15,2013-01-29 18:08:00,
2013-01-29 13:13:00,66.2,54.1,30.13,SW,222,3.0,-999.0,65,0.00,,,0.00,619,Wunderground v.1.15,2013-01-29 18:13:00,
2013-01-29 13:18:00,67.1,54.5,30.12,WSW,247,2.0,-999.0,64,0.00,,,0.00,626,Wunderground v.1.15,2013-01-29 18:18:00,
2013-01-29 13:24:00,67.3,54.7,30.12,SW,214,2.0,-999.0,64,0.00,,,0.00,306,Wunderground v.1.15,2013-01-29 18:24:00,
2013-01-29 13:29:00,67.7,54.6,30.12,South,182,2.0,-999.0,63,0.00,,,0.00,519,Wunderground v.1.15,2013-01-29 18:29:00,
2013-01-29 13:34:00,67.6,54.1,30.12,SSW,196,2.0,-999.0,62,0.00,,,0.00,610,Wunderground v.1.15,2013-01-29 18:34:00,
2013-01-29 13:40:00,68.1,54.6,30.11,SSE,168,4.0,-999.0,62,0.00,,,0.00,584,Wunderground v.1.15,2013-01-29 18:40:00,
2013-01-29 13:45:00,68.8,54.8,30.11,South,185,4.0,-999.0,61,0.00,,,0.00,575,Wunderground v.1.15,2013-01-29 18:45:00,
2013-01-29 13:50:00,68.9,55.3,30.10,West,273,4.0,-999.0,62,0.00,,,0.00,563,Wunderground v.1.15,2013-01-29 18:50:00,
2013-01-29 13:55:00,69.0,55.4,30.10,West,260,4.0,-999.0,62,0.00,,,0.00,555,Wunderground v.1.15,2013-01-29 18:55:00,
2013-01-29 14:01:00,69.3,55.7,30.09,WSW,238,4.0,-999.0,62,0.00,,,0.00,552,Wunderground v.1.15,2013-01-29 19:01:00,
2013-01-29 14:06:00,69.2,55.6,30.09,SSW,209,5.0,-999.0,62,0.00,,,0.00,538,Wunderground v.1.15,2013-01-29 19:06:00,
2013-01-29 14:11:00,69.5,55.9,30.09,SW,234,4.0,-999.0,62,0.00,,,0.00,533,Wunderground v.1.15,2013-01-29 19:11:00,
2013-01-29 14:17:00,69.4,55.8,30.09,WSW,257,5.0,-999.0,62,0.00,,,0.00,522,Wunderground v.1.15,2013-01-29 19:17:00,
2013-01-29 14:22:00,69.6,56.4,30.09,South,186,6.0,-999.0,63,0.00,,,0.00,513,Wunderground v.1.15,2013-01-29 19:22:00,
2013-01-29 14:27:00,69.8,56.2,30.09,SSW,213,5.0,-999.0,62,0.00,,,0.00,501,Wunderground v.1.15,2013-01-29 19:27:00,
2013-01-29 14:33:00,69.9,56.7,30.09,South,190,6.0,-999.0,63,0.00,,,0.00,485,Wunderground v.1.15,2013-01-29 19:33:00,
2013-01-29 14:38:00,70.1,56.9,30.09,SW,227,6.0,-999.0,63,0.00,,,0.00,401,Wunderground v.1.15,2013-01-29 19:38:00,
2013-01-29 14:43:00,70.0,56.8,30.09,WNW,294,6.0,-999.0,63,0.00,,,0.00,404,Wunderground v.1.15,2013-01-29 19:43:00,
2013-01-29 14:49:00,69.9,56.7,30.09,SW,233,6.0,-999.0,63,0.00,,,0.00,469,Wunderground v.1.15,2013-01-29 19:49:00,
2013-01-29 14:54:00,70.6,57.4,30.09,WSW,254,6.0,-999.0,63,0.00,,,0.00,455,Wunderground v.1.15,2013-01-29 19:54:00,
2013-01-29 14:59:00,70.4,57.2,30.08,South,175,5.0,-999.0,63,0.00,,,0.00,425,Wunderground v.1.15,2013-01-29 19:59:00,
2013-01-29 15:04:00,70.6,57.4,30.08,SSW,202,4.0,-999.0,63,0.00,,,0.00,422,Wunderground v.1.15,2013-01-29 20:04:00,
2013-01-29 15:09:00,70.6,57.4,30.08,WSW,253,4.0,-999.0,63,0.00,,,0.00,418,Wunderground v.1.15,2013-01-29 20:09:00,
2013-01-29 15:14:00,70.8,57.6,30.08,West,269,5.0,-999.0,63,0.00,,,0.00,392,Wunderground v.1.15,2013-01-29 20:14:00,
2013-01-29 15:19:00,71.2,58.0,30.08,SW,225,4.0,-999.0,63,0.00,,,0.00,383,Wunderground v.1.15,2013-01-29 20:19:00,
2013-01-29 15:25:00,71.3,57.6,30.08,SSE,163,3.0,-999.0,62,0.00,,,0.00,343,Wunderground v.1.15,2013-01-29 20:25:00,
2013-01-29 15:30:00,71.4,58.1,30.08,West,275,3.0,-999.0,63,0.00,,,0.00,295,Wunderground v.1.15,2013-01-29 20:30:00,
2013-01-29 15:35:00,71.4,58.1,30.08,SSW,212,3.0,-999.0,63,0.00,,,0.00,396,Wunderground v.1.15,2013-01-29 20:35:00,
2013-01-29 15:41:00,71.6,58.3,30.08,SSW,213,5.0,-999.0,63,0.00,,,0.00,357,Wunderground v.1.15,2013-01-29 20:41:00,
2013-01-29 15:46:00,71.4,58.1,30.08,WSW,254,7.0,-999.0,63,0.00,,,0.00,318,Wunderground v.1.15,2013-01-29 20:46:00,
2013-01-29 15:51:00,71.3,58.1,30.08,WSW,238,6.0,-999.0,63,0.00,,,0.00,269,Wunderground v.1.15,2013-01-29 20:51:00,
2013-01-29 15:57:00,71.4,58.1,30.07,WSW,251,5.0,-999.0,63,0.00,,,0.00,123,Wunderground v.1.15,2013-01-29 20:57:00,
2013-01-29 16:02:00,71.3,58.5,30.07,South,188,3.0,-999.0,64,0.00,,,0.00,267,Wunderground v.1.15,2013-01-29 21:02:00,
2013-01-29 16:07:00,71.2,58.0,30.07,South,186,4.0,-999.0,63,0.00,,,0.00,214,Wunderground v.1.15,2013-01-29 21:07:00,
2013-01-29 16:13:00,70.7,57.9,30.07,WSW,237,6.0,-999.0,64,0.00,,,0.00,192,Wunderground v.1.15,2013-01-29 21:13:00,
2013-01-29 16:18:00,70.7,57.9,30.07,WSW,246,5.0,-999.0,64,0.00,,,0.00,186,Wunderground v.1.15,2013-01-29 21:18:00,
2013-01-29 16:23:00,70.8,58.0,30.06,SW,223,3.0,-999.0,64,0.00,,,0.00,163,Wunderground v.1.15,2013-01-29 21:23:00,
2013-01-29 16:29:00,70.8,58.4,30.06,SW,227,1.0,-999.0,65,0.00,,,0.00,121,Wunderground v.1.15,2013-01-29 21:29:00,
2013-01-29 16:34:00,70.6,58.3,30.06,SSW,194,2.0,-999.0,65,0.00,,,0.00,90,Wunderground v.1.15,2013-01-29 21:34:00,
2013-01-29 16:39:00,70.3,58.0,30.06,SSW,205,3.0,-999.0,65,0.00,,,0.00,134,Wunderground v.1.15,2013-01-29 21:39:00,
2013-01-29 16:45:00,70.5,58.2,30.06,South,169,2.0,-999.0,65,0.00,,,0.00,107,Wunderground v.1.15,2013-01-29 21:45:00,
2013-01-29 16:50:00,70.5,58.2,30.05,SSW,210,2.0,-999.0,65,0.00,,,0.00,83,Wunderground v.1.15,2013-01-29 21:50:00,
2013-01-29 16:56:00,70.3,58.4,30.05,SSW,210,1.0,-999.0,66,0.00,,,0.00,54,Wunderground v.1.15,2013-01-29 21:56:00,
2013-01-29 17:01:00,70.2,58.3,30.05,SW,226,1.0,-999.0,66,0.00,,,0.00,44,Wunderground v.1.15,2013-01-29 22:01:00,
2013-01-29 17:07:00,70.1,58.2,30.05,SW,225,1.0,-999.0,66,0.00,,,0.00,40,Wunderground v.1.15,2013-01-29 22:07:00,
2013-01-29 17:12:00,70.0,58.5,30.05,SW,224,1.0,-999.0,67,0.00,,,0.00,32,Wunderground v.1.15,2013-01-29 22:12:00,
2013-01-29 17:17:00,69.8,58.3,30.05,SW,224,1.0,-999.0,67,0.00,,,0.00,25,Wunderground v.1.15,2013-01-29 22:17:00,
2013-01-29 17:22:00,69.6,58.2,30.05,SW,221,1.0,-999.0,67,0.00,,,0.00,19,Wunderground v.1.15,2013-01-29 22:22:00,
2013-01-29 17:28:00,69.4,58.0,30.05,SW,221,0.0,-999.0,67,0.00,,,0.00,12,Wunderground v.1.15,2013-01-29 22:28:00,
2013-01-29 17:33:00,69.1,57.7,30.05,SW,220,1.0,-999.0,67,0.00,,,0.00,7,Wunderground v.1.15,2013-01-29 22:33:00,
2013-01-29 17:39:00,68.9,57.9,30.05,SW,231,2.0,-999.0,68,0.00,,,0.00,0,Wunderground v.1.15,2013-01-29 22:39:00,
2013-01-29 17:44:00,68.7,57.7,30.04,SW,217,1.0,-999.0,68,0.00,,,0.00,0,Wunderground v.1.15,2013-01-29 22:44:00,
2013-01-29 17:49:00,68.4,57.4,30.05,SSW,213,1.0,-999.0,68,0.00,,,0.00,0,Wunderground v.1.15,2013-01-29 22:49:00,
2013-01-29 17:54:00,68.2,57.6,30.04,SW,214,0.0,-999.0,69,0.00,,,0.00,0,Wunderground v.1.15,2013-01-29 22:54:00,
2013-01-29 18:00:00,68.0,57.4,30.04,SW,214,0.0,-999.0,69,0.00,,,0.00,0,Wunderground v.1.15,2013-01-29 23:00:00,
2013-01-29 18:05:00,67.9,57.4,30.04,SE,130,1.0,-999.0,69,0.00,,,0.00,0,Wunderground v.1.15,2013-01-29 23:05:00,
2013-01-29 18:11:00,67.6,57.1,30.04,South,190,1.0,-999.0,69,0.00,,,0.00,0,Wunderground v.1.15,2013-01-29 23:11:00,
2013-01-29 18:16:00,67.4,57.3,30.04,SSE,162,1.0,-999.0,70,0.00,,,0.00,0,Wunderground v.1.15,2013-01-29 23:16:00,
2013-01-29 18:22:00,67.1,57.0,30.04,SSW,196,0.0,-999.0,70,0.00,,,0.00,0,Wunderground v.1.15,2013-01-29 23:22:00,
2013-01-29 18:27:00,66.9,56.8,30.04,SSW,194,0.0,-999.0,70,0.00,,,0.00,0,Wunderground v.1.15,2013-01-29 23:27:00,
2013-01-29 18:33:00,66.7,57.0,30.04,South,171,1.0,-999.0,71,0.00,,,0.00,0,Wunderground v.1.15,2013-01-29 23:33:00,
2013-01-29 18:39:00,66.4,56.7,30.04,South,180,1.0,-999.0,71,0.00,,,0.00,0,Wunderground v.1.15,2013-01-29 23:39:00,
2013-01-29 18:44:00,66.2,56.9,30.04,South,177,1.0,-999.0,72,0.00,,,0.00,0,Wunderground v.1.15,2013-01-29 23:44:00,
2013-01-29 18:49:00,66.0,56.7,30.03,South,189,0.0,-999.0,72,0.00,,,0.00,0,Wunderground v.1.15,2013-01-29 23:49:00,
2013-01-29 18:55:00,65.9,57.0,30.03,SSE,167,1.0,-999.0,73,0.00,,,0.00,0,Wunderground v.1.15,2013-01-29 23:55:00,
2013-01-29 19:00:00,65.7,56.8,30.03,South,170,1.0,-999.0,73,0.00,,,0.00,0,Wunderground v.1.15,2013-01-30 00:00:00,
2013-01-29 19:05:00,65.6,56.7,30.03,South,187,1.0,-999.0,73,0.00,,,0.00,0,Wunderground v.1.15,2013-01-30 00:05:00,
2013-01-29 19:11:00,65.4,56.9,30.03,South,187,0.0,-999.0,74,0.00,,,0.00,0,Wunderground v.1.15,2013-01-30 00:11:00,
2013-01-29 19:16:00,65.3,56.8,30.03,SSW,207,1.0,-999.0,74,0.00,,,0.00,0,Wunderground v.1.15,2013-01-30 00:16:00,
2013-01-29 19:21:00,65.2,56.7,30.03,SSW,209,1.0,-999.0,74,0.00,,,0.00,0,Wunderground v.1.15,2013-01-30 00:21:00,
2013-01-29 19:26:00,65.0,56.5,30.03,SSW,209,1.0,-999.0,74,0.00,,,0.00,0,Wunderground v.1.15,2013-01-30 00:26:00,